Disclaimer

Please do not use the information listed here in-flight or in-navigation, as they are not provided to us by the airports but are provided by volunteers, so they might be outdated.

Search


Regions


Airport information page

Radio informations:
BEAUVAIS TWR - 121.4 MHz
BEAUVAIS ATIS - 118.375 MHz
BEAUVAIS APP - 119.9 MHz

Airport informations:
Latitude: 49° 27' 16.00" N
Longitude: 002° 06' 46.00" E
Elevation: 359 feet - 109 meters
Operating hours: Remarks
Operating agency: Civil government, landing fees and diplomatic clearance may be required
Timezone: UTC+1(+2DT) - Last Sunday in March to last Sunday in October
Fuel: Jet A1, without icing nhibitor.

100/130 MIL Spec, low lead, aviation gasoline (BLUE)

Runway information:
04/22 - 3625 x 98 feet< - >1105 x 30 meters
13/31 - 7972 x 148 feet< - >2430 x 45 meters

Recent METARs:
LFOB 180900Z AUTO 05007KT CAVOK 03/M01 Q1024 NOSIG
LFOB 180930Z AUTO 05008KT CAVOK 04/M00 Q1024 NOSIG
LFOB 181000Z AUTO 06010KT 020V080 CAVOK 05/00 Q1024 NOSIG

Airport on the map: